Time;durP1;ratioP1;P1;durP2;ratioP2;P2;SDS_P1;SDS_P2;PMS_P1;PMS_P2;Temp;Humidity;BMP_temperature;BMP_pressure;BME280_temperature;BME280_humidity;BME280_pressure;Samples;Min_cycle;Max_cycle;Signal;HPM_P1;HPM_P2
2022/01/06 00:00:07;;;;;;;22.92;10.90;;;;;;;;;;5029408;28;20102;-75
2022/01/06 00:02:33;;;;;;;24.17;11.32;;;;;;;;;;5029833;28;20368;-74
2022/01/06 00:04:59;;;;;;;19.33;9.80;;;;;;;;;;5028972;28;20041;-75
2022/01/06 00:07:25;;;;;;;19.67;8.50;;;;;;;;;;5032295;28;20029;-74
2022/01/06 00:09:52;;;;;;;15.90;7.43;;;;;;;;;;5032636;28;20041;-75
2022/01/06 00:12:21;;;;;;;15.00;7.78;;;;;;;;;;5033371;28;20029;-74
2022/01/06 00:15:04;;;;;;;19.02;8.63;;;;;;;;;;5019038;28;20076;-75
2022/01/06 00:25:49;;;;;;;33.28;15.40;;;;;;;;;;4980289;28;20457;-75
2022/01/06 00:28:15;;;;;;;27.20;12.95;;;;;;;;;;5032946;28;20506;-75
2022/01/06 00:30:41;;;;;;;21.65;9.43;;;;;;;;;;5031914;28;20033;-75
2022/01/06 00:33:08;;;;;;;24.52;11.88;;;;;;;;;;5028230;28;20029;-75
2022/01/06 00:35:34;;;;;;;25.52;11.70;;;;;;;;;;5030001;28;20041;-75
2022/01/06 00:38:00;;;;;;;27.17;10.95;;;;;;;;;;5025647;28;20033;-75
2022/01/06 00:40:26;;;;;;;31.33;12.05;;;;;;;;;;5033052;28;20029;-75
2022/01/06 00:42:52;;;;;;;33.10;14.35;;;;;;;;;;5031529;28;20822;-75
2022/01/06 00:45:18;;;;;;;35.47;14.75;;;;;;;;;;5032998;28;20699;-75
2022/01/06 00:47:47;;;;;;;41.53;15.82;;;;;;;;;;5033265;28;20030;-74
2022/01/06 00:50:13;;;;;;;49.50;20.75;;;;;;;;;;5032802;28;20041;-74
2022/01/06 00:52:39;;;;;;;47.22;21.17;;;;;;;;;;5032051;28;20083;-75
2022/01/06 00:55:06;;;;;;;34.58;13.70;;;;;;;;;;5032552;28;20461;-75
2022/01/06 00:57:32;;;;;;;20.95;8.90;;;;;;;;;;5033069;28;20464;-74
2022/01/06 00:59:58;;;;;;;19.35;8.77;;;;;;;;;;5028752;28;20104;-75
2022/01/06 01:02:24;;;;;;;22.10;8.93;;;;;;;;;;5032399;28;20033;-75
2022/01/06 01:04:50;;;;;;;24.63;10.77;;;;;;;;;;5031969;28;20527;-74
2022/01/06 01:07:16;;;;;;;18.52;8.50;;;;;;;;;;5032775;28;20075;-75
2022/01/06 01:09:42;;;;;;;14.85;6.88;;;;;;;;;;5032321;28;20038;-75
2022/01/06 01:12:08;;;;;;;17.23;8.30;;;;;;;;;;5032263;28;20101;-75
2022/01/06 01:14:45;;;;;;;21.08;10.18;;;;;;;;;;5025034;28;20041;-75
2022/01/06 01:17:14;;;;;;;28.85;11.73;;;;;;;;;;5024588;28;20037;-75
2022/01/06 01:19:40;;;;;;;31.48;15.15;;;;;;;;;;5023868;28;20029;-74
2022/01/06 01:22:08;;;;;;;57.35;30.60;;;;;;;;;;5032613;28;20415;-75
2022/01/06 01:24:34;;;;;;;23.58;10.70;;;;;;;;;;5032246;28;20083;-75
2022/01/06 01:27:00;;;;;;;14.60;5.47;;;;;;;;;;5032234;28;20109;-74
2022/01/06 01:29:29;;;;;;;15.55;6.68;;;;;;;;;;5027430;28;20042;-75
2022/01/06 01:31:56;;;;;;;18.48;7.85;;;;;;;;;;5018386;28;20036;-75
2022/01/06 01:34:26;;;;;;;14.00;6.30;;;;;;;;;;5027876;28;20469;-75
2022/01/06 01:36:53;;;;;;;13.75;5.70;;;;;;;;;;5012590;28;20054;-75
2022/01/06 01:39:19;;;;;;;14.73;5.85;;;;;;;;;;5016434;28;20494;-75
2022/01/06 01:41:46;;;;;;;20.45;9.00;;;;;;;;;;5027961;28;20400;-76
2022/01/06 01:44:13;;;;;;;28.27;11.23;;;;;;;;;;5032063;28;20116;-75
2022/01/06 01:46:45;;;;;;;37.20;15.27;;;;;;;;;;5017034;28;20022;-75
2022/01/06 01:51:51;;;;;;;28.08;10.52;;;;;;;;;;5031855;28;20136;-75
2022/01/06 01:54:17;;;;;;;32.08;11.35;;;;;;;;;;5031837;28;20052;-75
2022/01/06 01:56:44;;;;;;;39.97;13.45;;;;;;;;;;5031779;28;20041;-75
2022/01/06 01:59:10;;;;;;;13.02;5.60;;;;;;;;;;5031168;28;20175;-74
2022/01/06 02:01:36;;;;;;;13.05;5.60;;;;;;;;;;5031639;28;20033;-75
2022/01/06 02:04:03;;;;;;;18.30;6.30;;;;;;;;;;5030841;28;20034;-76
2022/01/06 02:06:29;;;;;;;22.00;9.90;;;;;;;;;;5031392;28;20526;-74
2022/01/06 02:08:55;;;;;;;23.70;10.88;;;;;;;;;;5030825;28;20400;-75
2022/01/06 02:11:21;;;;;;;23.85;10.38;;;;;;;;;;5030787;28;20033;-75
2022/01/06 02:13:47;;;;;;;30.10;12.57;;;;;;;;;;5031383;28;20042;-75
2022/01/06 02:16:14;;;;;;;31.00;13.63;;;;;;;;;;5031238;28;20791;-74
2022/01/06 02:18:40;;;;;;;36.42;16.17;;;;;;;;;;5031124;28;20038;-75
2022/01/06 02:21:06;;;;;;;31.77;14.27;;;;;;;;;;5031240;28;20029;-75
2022/01/06 02:23:32;;;;;;;32.70;12.18;;;;;;;;;;5030914;28;20144;-75
2022/01/06 02:25:57;;;;;;;25.83;11.80;;;;;;;;;;5031070;28;20794;-75
2022/01/06 02:28:23;;;;;;;26.90;11.27;;;;;;;;;;5030469;28;20034;-75
2022/01/06 02:30:51;;;;;;;26.40;13.18;;;;;;;;;;5030670;28;20392;-74
2022/01/06 02:33:18;;;;;;;40.97;20.13;;;;;;;;;;5030415;28;20041;-75
2022/01/06 02:35:45;;;;;;;35.65;16.80;;;;;;;;;;5030957;28;20034;-75
2022/01/06 02:38:11;;;;;;;34.63;15.45;;;;;;;;;;5030804;28;20231;-74
2022/01/06 02:40:38;;;;;;;29.88;14.70;;;;;;;;;;5031039;28;20040;-75
2022/01/06 02:43:06;;;;;;;34.40;17.70;;;;;;;;;;5030140;28;20045;-75
2022/01/06 02:45:33;;;;;;;33.08;15.18;;;;;;;;;;5030739;28;20033;-75
2022/01/06 02:48:00;;;;;;;23.25;9.32;;;;;;;;;;5020602;28;20037;-74
2022/01/06 02:50:27;;;;;;;18.48;7.60;;;;;;;;;;5030756;28;20034;-75
2022/01/06 02:52:53;;;;;;;14.20;6.65;;;;;;;;;;5026349;28;20033;-75
2022/01/06 02:55:19;;;;;;;15.82;7.28;;;;;;;;;;5030755;28;20038;-75
2022/01/06 02:57:45;;;;;;;16.10;7.60;;;;;;;;;;5028300;28;20045;-74
2022/01/06 03:00:13;;;;;;;13.43;6.30;;;;;;;;;;5030708;28;20038;-74
2022/01/06 03:02:41;;;;;;;11.63;4.90;;;;;;;;;;5023746;28;20024;-74
2022/01/06 03:05:08;;;;;;;14.32;5.25;;;;;;;;;;5030444;28;20080;-75
2022/01/06 03:07:34;;;;;;;19.67;8.13;;;;;;;;;;5030877;28;20057;-75
2022/01/06 03:10:03;;;;;;;31.50;11.90;;;;;;;;;;5030246;28;20476;-75
2022/01/06 03:13:02;;;;;;;15.90;7.22;;;;;;;;;;5030424;28;20030;-75
2022/01/06 03:15:23;;;;;;;10.25;3.47;;;;;;;;;;5021786;28;20042;-75
2022/01/06 03:17:50;;;;;;;7.35;2.72;;;;;;;;;;5010614;28;20033;-74
2022/01/06 03:20:17;;;;;;;7.55;2.83;;;;;;;;;;5027158;28;20061;-74
2022/01/06 03:22:43;;;;;;;12.10;3.20;;;;;;;;;;5030576;28;20038;-74
2022/01/06 03:25:10;;;;;;;9.55;2.75;;;;;;;;;;5029614;28;20112;-74
2022/01/06 03:27:36;;;;;;;16.00;3.83;;;;;;;;;;5015695;28;20125;-75
2022/01/06 03:30:03;;;;;;;14.32;3.05;;;;;;;;;;5022686;28;20112;-75
2022/01/06 03:32:29;;;;;;;6.57;1.92;;;;;;;;;;5030451;28;20064;-74
2022/01/06 03:34:55;;;;;;;7.88;1.40;;;;;;;;;;5029784;28;20060;-75
2022/01/06 03:37:21;;;;;;;6.55;1.35;;;;;;;;;;5030415;28;20419;-74
2022/01/06 03:39:47;;;;;;;12.38;3.45;;;;;;;;;;5030173;28;20033;-75
2022/01/06 03:42:13;;;;;;;6.25;1.45;;;;;;;;;;5034155;28;20045;-75
2022/01/06 03:44:39;;;;;;;5.75;1.58;;;;;;;;;;5033974;28;20708;-76
2022/01/06 03:47:06;;;;;;;8.20;2.55;;;;;;;;;;5033950;28;20468;-75
2022/01/06 03:49:32;;;;;;;9.82;3.22;;;;;;;;;;5034061;28;20038;-75
2022/01/06 03:51:58;;;;;;;11.00;3.90;;;;;;;;;;5032724;28;20036;-75
2022/01/06 03:54:24;;;;;;;10.18;3.95;;;;;;;;;;5033995;28;20037;-75
2022/01/06 03:56:50;;;;;;;9.48;3.63;;;;;;;;;;5033590;28;20029;-75
2022/01/06 03:59:17;;;;;;;11.95;3.70;;;;;;;;;;5033885;28;20777;-74
2022/01/06 04:01:43;;;;;;;12.30;3.03;;;;;;;;;;5033316;28;20036;-75
2022/01/06 04:04:09;;;;;;;8.35;3.00;;;;;;;;;;5034071;28;20033;-75
2022/01/06 04:06:35;;;;;;;10.45;3.22;;;;;;;;;;5033381;28;20112;-75
2022/01/06 04:09:01;;;;;;;8.60;2.88;;;;;;;;;;5033840;28;20068;-75
2022/01/06 04:11:27;;;;;;;9.75;2.72;;;;;;;;;;5033862;28;20606;-75
2022/01/06 04:13:54;;;;;;;5.43;1.50;;;;;;;;;;5025194;28;20041;-75
2022/01/06 04:16:20;;;;;;;7.22;1.58;;;;;;;;;;5015893;28;20060;-75
2022/01/06 04:18:47;;;;;;;7.53;1.20;;;;;;;;;;5032610;28;20042;-75
2022/01/06 04:21:13;;;;;;;6.38;1.60;;;;;;;;;;5033083;28;20052;-74
2022/01/06 04:23:40;;;;;;;6.40;1.20;;;;;;;;;;5030327;28;20076;-74
2022/01/06 04:26:06;;;;;;;4.07;1.02;;;;;;;;;;5013720;28;20450;-74
2022/01/06 04:28:32;;;;;;;4.57;0.90;;;;;;;;;;5032761;28;20079;-75
2022/01/06 04:30:58;;;;;;;7.15;2.28;;;;;;;;;;5053309;28;20029;-74
2022/01/06 04:33:24;;;;;;;9.85;3.40;;;;;;;;;;5044892;28;20041;-75
2022/01/06 04:35:50;;;;;;;11.88;4.70;;;;;;;;;;5033090;28;20492;-74
2022/01/06 04:38:16;;;;;;;9.45;3.72;;;;;;;;;;5037241;28;20078;-75
2022/01/06 04:40:42;;;;;;;15.88;6.35;;;;;;;;;;5053184;28;20056;-75
2022/01/06 04:43:08;;;;;;;17.17;5.25;;;;;;;;;;5034966;28;20477;-75
2022/01/06 04:45:34;;;;;;;12.90;5.28;;;;;;;;;;5021721;28;20030;-75
2022/01/06 04:48:00;;;;;;;12.18;4.72;;;;;;;;;;5030754;28;20104;-75
2022/01/06 04:50:27;;;;;;;6.90;1.33;;;;;;;;;;5032519;28;20152;-74
2022/01/06 04:52:53;;;;;;;4.10;1.00;;;;;;;;;;5032653;28;20083;-75
2022/01/06 04:55:19;;;;;;;5.15;0.98;;;;;;;;;;5032505;28;20041;-75
2022/01/06 04:57:45;;;;;;;5.97;0.90;;;;;;;;;;5032789;28;20048;-75
2022/01/06 05:00:11;;;;;;;5.13;1.08;;;;;;;;;;5031082;28;20085;-75
2022/01/06 05:02:37;;;;;;;57.60;24.50;;;;;;;;;;5032932;28;20055;-74
2022/01/06 05:05:03;;;;;;;22.20;8.70;;;;;;;;;;5025745;28;20472;-76
2022/01/06 05:07:29;;;;;;;20.40;7.55;;;;;;;;;;5033054;28;20071;-75
2022/01/06 05:09:55;;;;;;;17.05;6.57;;;;;;;;;;5018069;28;20112;-75
2022/01/06 05:12:22;;;;;;;12.82;4.50;;;;;;;;;;5038411;28;20482;-74
2022/01/06 05:14:48;;;;;;;8.93;2.00;;;;;;;;;;5038466;28;20029;-75
2022/01/06 05:17:14;;;;;;;5.53;1.60;;;;;;;;;;5048672;28;20037;-75
2022/01/06 05:19:40;;;;;;;9.27;1.75;;;;;;;;;;5032019;28;20497;-75
2022/01/06 05:22:06;;;;;;;9.02;1.60;;;;;;;;;;5032325;28;20083;-75
2022/01/06 05:24:33;;;;;;;10.55;3.88;;;;;;;;;;5031604;28;20035;-74
2022/01/06 05:26:59;;;;;;;9.93;3.90;;;;;;;;;;5032419;28;20052;-75
2022/01/06 05:29:25;;;;;;;10.60;4.40;;;;;;;;;;5031997;28;20045;-75
2022/01/06 05:31:51;;;;;;;9.27;3.83;;;;;;;;;;5032896;28;20439;-74
2022/01/06 05:34:17;;;;;;;8.10;2.63;;;;;;;;;;5014554;28;20026;-75
2022/01/06 05:36:43;;;;;;;7.82;2.20;;;;;;;;;;5031696;28;20407;-75
2022/01/06 05:39:09;;;;;;;9.65;1.77;;;;;;;;;;5026603;28;20030;-75
2022/01/06 05:41:35;;;;;;;7.25;2.10;;;;;;;;;;5029477;28;20036;-74
2022/01/06 05:44:02;;;;;;;8.00;2.70;;;;;;;;;;5012374;28;20547;-75
2022/01/06 05:46:28;;;;;;;8.55;3.25;;;;;;;;;;5025356;28;20030;-74
2022/01/06 05:48:54;;;;;;;8.10;3.22;;;;;;;;;;5031838;28;20116;-75
2022/01/06 05:51:20;;;;;;;7.95;2.80;;;;;;;;;;5031949;28;20037;-75
2022/01/06 05:53:46;;;;;;;10.70;4.00;;;;;;;;;;5031342;28;20095;-75
2022/01/06 05:56:12;;;;;;;11.63;3.85;;;;;;;;;;5031945;28;20034;-75
2022/01/06 05:58:41;;;;;;;10.43;3.50;;;;;;;;;;5030879;28;20041;-75
2022/01/06 06:01:07;;;;;;;9.23;3.15;;;;;;;;;;5031159;28;20084;-75
2022/01/06 06:03:37;;;;;;;12.18;4.95;;;;;;;;;;5030768;28;20029;-75
2022/01/06 06:06:03;;;;;;;10.35;4.35;;;;;;;;;;5030820;28;20083;-75
2022/01/06 06:08:29;;;;;;;9.32;3.42;;;;;;;;;;5031446;28;20057;-74
2022/01/06 06:10:55;;;;;;;6.50;1.67;;;;;;;;;;5019960;28;20589;-75
2022/01/06 06:13:21;;;;;;;6.40;1.20;;;;;;;;;;5013151;28;20037;-75
2022/01/06 06:15:47;;;;;;;6.07;1.10;;;;;;;;;;5015718;28;20044;-75
2022/01/06 06:18:14;;;;;;;10.27;4.18;;;;;;;;;;5030555;28;20042;-74
2022/01/06 06:20:41;;;;;;;28.08;13.45;;;;;;;;;;5027684;28;20037;-74
2022/01/06 06:23:08;;;;;;;15.50;7.78;;;;;;;;;;5031859;28;20057;-75
2022/01/06 06:25:34;;;;;;;18.40;8.68;;;;;;;;;;5030493;28;20037;-75
2022/01/06 06:28:00;;;;;;;13.02;5.20;;;;;;;;;;5031842;28;20040;-75
2022/01/06 06:30:26;;;;;;;9.45;3.35;;;;;;;;;;5027645;28;20041;-76
2022/01/06 06:32:52;;;;;;;7.20;1.50;;;;;;;;;;5043600;28;20072;-76
2022/01/06 06:35:18;;;;;;;6.05;0.93;;;;;;;;;;5036879;28;20570;-75
2022/01/06 06:37:44;;;;;;;6.88;1.50;;;;;;;;;;5040056;28;20087;-75
2022/01/06 06:40:11;;;;;;;9.90;2.60;;;;;;;;;;5043674;28;20037;-75
2022/01/06 06:42:37;;;;;;;10.98;4.15;;;;;;;;;;5027217;28;20114;-75
2022/01/06 06:45:03;;;;;;;9.68;3.17;;;;;;;;;;5030766;28;20041;-75
2022/01/06 06:47:29;;;;;;;17.20;5.97;;;;;;;;;;5027154;28;20365;-75
2022/01/06 06:49:59;;;;;;;23.75;8.95;;;;;;;;;;5030460;28;20030;-74
2022/01/06 06:52:25;;;;;;;16.63;5.82;;;;;;;;;;5022875;28;20025;-75
2022/01/06 06:54:53;;;;;;;22.55;9.05;;;;;;;;;;5030542;28;20642;-75
2022/01/06 06:57:19;;;;;;;30.15;12.55;;;;;;;;;;5030308;28;20025;-75
2022/01/06 06:59:45;;;;;;;30.77;12.98;;;;;;;;;;5029424;28;20091;-74
2022/01/06 07:02:11;;;;;;;19.85;9.93;;;;;;;;;;5026050;28;20517;-75
2022/01/06 07:04:37;;;;;;;14.95;6.88;;;;;;;;;;5030666;28;20071;-75
2022/01/06 07:07:04;;;;;;;12.27;4.57;;;;;;;;;;5030129;28;20032;-75
2022/01/06 07:09:30;;;;;;;11.82;3.80;;;;;;;;;;5026645;28;20468;-75
2022/01/06 07:11:56;;;;;;;11.73;4.05;;;;;;;;;;5030010;28;20029;-75
2022/01/06 07:14:22;;;;;;;17.13;7.80;;;;;;;;;;5034861;28;20039;-75
2022/01/06 07:16:48;;;;;;;13.75;7.72;;;;;;;;;;5038987;28;20040;-75
2022/01/06 07:19:14;;;;;;;17.25;7.10;;;;;;;;;;5025906;28;20395;-75
2022/01/06 07:21:40;;;;;;;13.05;4.18;;;;;;;;;;5029627;28;20579;-74
2022/01/06 07:24:06;;;;;;;11.07;5.30;;;;;;;;;;5030159;28;20103;-75
2022/01/06 07:26:32;;;;;;;16.35;6.32;;;;;;;;;;5030190;28;20025;-74
2022/01/06 07:28:58;;;;;;;25.23;16.83;;;;;;;;;;5029696;28;20052;-75
2022/01/06 07:31:24;;;;;;;28.27;15.18;;;;;;;;;;5023628;28;20029;-75
2022/01/06 07:33:50;;;;;;;47.95;30.00;;;;;;;;;;5020838;28;20037;-75
2022/01/06 07:36:16;;;;;;;20.85;11.23;;;;;;;;;;5030333;28;20602;-75
2022/01/06 07:38:42;;;;;;;20.98;11.93;;;;;;;;;;5019051;28;20691;-75
2022/01/06 07:41:08;;;;;;;42.47;27.27;;;;;;;;;;5027779;28;20112;-75
2022/01/06 07:43:34;;;;;;;15.63;6.45;;;;;;;;;;5019652;28;20393;-75
2022/01/06 07:46:01;;;;;;;19.05;4.82;;;;;;;;;;5036573;28;20029;-75
2022/01/06 07:48:37;;;;;;;11.40;4.43;;;;;;;;;;5032112;28;20117;-75
2022/01/06 07:51:03;;;;;;;7.10;3.03;;;;;;;;;;5033704;28;20029;-75
2022/01/06 07:53:29;;;;;;;10.52;2.10;;;;;;;;;;5038735;28;20049;-74
2022/01/06 07:55:55;;;;;;;10.43;2.20;;;;;;;;;;5011023;28;20028;-75
2022/01/06 07:58:21;;;;;;;11.90;2.60;;;;;;;;;;5029966;28;20033;-75
2022/01/06 08:00:47;;;;;;;9.75;2.95;;;;;;;;;;5029782;28;20026;-75
2022/01/06 08:03:13;;;;;;;9.10;1.70;;;;;;;;;;5023324;28;20045;-75
2022/01/06 08:05:39;;;;;;;7.88;2.03;;;;;;;;;;5010306;28;20034;-75
2022/01/06 08:08:05;;;;;;;7.75;1.80;;;;;;;;;;5034146;28;20094;-75
2022/01/06 08:10:31;;;;;;;7.00;2.00;;;;;;;;;;5029900;28;20480;-75
2022/01/06 08:12:57;;;;;;;7.78;2.17;;;;;;;;;;5029625;28;20117;-75
2022/01/06 08:15:23;;;;;;;10.38;2.80;;;;;;;;;;5029917;28;20108;-75
2022/01/06 08:17:49;;;;;;;11.95;2.80;;;;;;;;;;5029026;28;20096;-74
2022/01/06 08:20:16;;;;;;;16.27;3.67;;;;;;;;;;5026585;28;20030;-75
2022/01/06 08:22:42;;;;;;;11.57;3.50;;;;;;;;;;5040631;28;20040;-75
2022/01/06 08:25:08;;;;;;;18.65;8.77;;;;;;;;;;5030065;28;20400;-75
2022/01/06 08:27:34;;;;;;;24.25;10.25;;;;;;;;;;5031018;28;20079;-75
2022/01/06 08:30:00;;;;;;;20.30;9.48;;;;;;;;;;5017541;28;20030;-75
2022/01/06 08:32:26;;;;;;;22.88;10.45;;;;;;;;;;5024669;28;20025;-75
2022/01/06 08:34:52;;;;;;;21.40;9.27;;;;;;;;;;5033289;28;20033;-75
2022/01/06 08:37:18;;;;;;;20.75;9.63;;;;;;;;;;5045567;28;20466;-74
2022/01/06 08:39:45;;;;;;;17.13;8.93;;;;;;;;;;5029471;28;20041;-74
2022/01/06 08:42:14;;;;;;;22.58;10.45;;;;;;;;;;5013028;28;20057;-74
2022/01/06 08:44:41;;;;;;;19.83;9.63;;;;;;;;;;5026703;28;20029;-74
2022/01/06 08:47:07;;;;;;;16.90;9.23;;;;;;;;;;5033214;28;20026;-75
2022/01/06 08:49:34;;;;;;;34.75;14.98;;;;;;;;;;5034722;28;20037;-74
2022/01/06 08:52:00;;;;;;;56.63;24.65;;;;;;;;;;5034180;28;20063;-74
2022/01/06 08:54:26;;;;;;;38.03;14.52;;;;;;;;;;5043519;28;20116;-75
2022/01/06 08:56:52;;;;;;;29.20;11.15;;;;;;;;;;5029641;28;20603;-75
2022/01/06 08:59:18;;;;;;;22.25;10.57;;;;;;;;;;5029686;28;20025;-75
2022/01/06 09:01:44;;;;;;;31.15;14.00;;;;;;;;;;5023220;28;20037;-75
2022/01/06 09:04:10;;;;;;;14.70;7.35;;;;;;;;;;5029200;28;20025;-76
2022/01/06 09:06:36;;;;;;;16.08;4.40;;;;;;;;;;5029414;28;20032;-75
2022/01/06 09:09:03;;;;;;;17.02;8.02;;;;;;;;;;5032816;28;20040;-75
2022/01/06 09:11:29;;;;;;;18.80;8.20;;;;;;;;;;5031987;28;20037;-75
2022/01/06 09:13:55;;;;;;;18.95;8.63;;;;;;;;;;5032606;28;20507;-75
2022/01/06 09:16:21;;;;;;;19.58;7.68;;;;;;;;;;5031690;28;20033;-74
2022/01/06 09:18:47;;;;;;;15.45;7.75;;;;;;;;;;5032448;28;20113;-75
2022/01/06 09:21:13;;;;;;;18.45;8.13;;;;;;;;;;5026269;28;20076;-75
2022/01/06 09:23:39;;;;;;;25.15;10.18;;;;;;;;;;5032934;28;20087;-74
2022/01/06 09:26:05;;;;;;;27.58;11.75;;;;;;;;;;5032367;28;20036;-74
2022/01/06 09:28:31;;;;;;;23.95;10.70;;;;;;;;;;5031680;28;20056;-74
2022/01/06 09:30:57;;;;;;;23.05;9.80;;;;;;;;;;5032064;28;20762;-75
2022/01/06 09:33:24;;;;;;;20.58;7.93;;;;;;;;;;5032427;28;20869;-75
2022/01/06 09:35:52;;;;;;;18.10;7.88;;;;;;;;;;5028471;28;20026;-74
2022/01/06 09:38:18;;;;;;;17.40;7.35;;;;;;;;;;5012320;28;20088;-75
2022/01/06 09:40:44;;;;;;;21.58;8.60;;;;;;;;;;5026788;28;20033;-75
2022/01/06 09:43:12;;;;;;;20.45;9.05;;;;;;;;;;5032089;28;20116;-74
2022/01/06 09:45:39;;;;;;;18.15;7.90;;;;;;;;;;5031666;28;20084;-75
2022/01/06 09:48:05;;;;;;;16.38;7.15;;;;;;;;;;5031638;28;20040;-75
2022/01/06 09:50:32;;;;;;;14.95;5.80;;;;;;;;;;5013506;28;20384;-75
2022/01/06 09:52:58;;;;;;;23.65;10.25;;;;;;;;;;5025439;28;20061;-75
2022/01/06 09:55:24;;;;;;;29.35;14.13;;;;;;;;;;5012124;28;20091;-75
2022/01/06 09:57:58;;;;;;;24.73;12.73;;;;;;;;;;5031998;28;20037;-74
2022/01/06 10:00:24;;;;;;;20.30;10.30;;;;;;;;;;5023695;28;20426;-75
2022/01/06 10:02:54;;;;;;;28.10;13.30;;;;;;;;;;5022476;28;20067;-75
2022/01/06 10:05:21;;;;;;;32.15;14.73;;;;;;;;;;5031709;28;20500;-75
2022/01/06 10:07:47;;;;;;;27.58;12.82;;;;;;;;;;5031186;28;20037;-75
2022/01/06 10:10:14;;;;;;;25.88;12.52;;;;;;;;;;5031402;28;20076;-75
2022/01/06 10:12:40;;;;;;;24.30;9.35;;;;;;;;;;5031125;28;20384;-74
2022/01/06 10:15:27;;;;;;;25.05;9.75;;;;;;;;;;5031125;28;20037;-75
2022/01/06 10:17:55;;;;;;;23.83;9.32;;;;;;;;;;5030649;28;20515;-75
2022/01/06 10:20:22;;;;;;;19.95;6.57;;;;;;;;;;5031338;28;20036;-75
2022/01/06 10:22:56;;;;;;;11.80;5.57;;;;;;;;;;5031386;28;20018;-75
2022/01/06 10:25:24;;;;;;;44.42;16.52;;;;;;;;;;5031838;28;20476;-75
2022/01/06 10:27:52;;;;;;;104.90;41.40;;;;;;;;;;5031386;28;20032;-75
2022/01/06 10:30:18;;;;;;;97.50;41.47;;;;;;;;;;5031387;28;20029;-75
2022/01/06 10:32:44;;;;;;;63.40;29.13;;;;;;;;;;5021720;28;20068;-74
2022/01/06 10:35:12;;;;;;;29.73;11.93;;;;;;;;;;5031191;28;20033;-75
2022/01/06 10:37:44;;;;;;;15.75;5.70;;;;;;;;;;5024282;28;20444;-75
2022/01/06 10:40:10;;;;;;;;;;;;;;;;;;5031444;28;20112;-75
2022/01/06 10:42:38;;;;;;;18.55;7.47;;;;;;;;;;5021348;28;19921;-75
2022/01/06 10:45:09;;;;;;;25.13;11.40;;;;;;;;;;5031339;28;20669;-75
2022/01/06 10:47:36;;;;;;;27.75;11.80;;;;;;;;;;5031036;28;20047;-75
2022/01/06 10:50:13;;;;;;;23.92;11.27;;;;;;;;;;5023891;28;20026;-75
2022/01/06 10:52:40;;;;;;;25.27;11.90;;;;;;;;;;5015815;28;20040;-75
2022/01/06 10:55:09;;;;;;;37.58;14.88;;;;;;;;;;5012659;28;20113;-75
2022/01/06 10:57:35;;;;;;;29.77;14.45;;;;;;;;;;5013791;28;20364;-75
2022/01/06 11:00:01;;;;;;;29.90;16.08;;;;;;;;;;5030800;28;20026;-75
2022/01/06 11:02:27;;;;;;;26.33;10.82;;;;;;;;;;5029982;28;20040;-76
2022/01/06 11:04:53;;;;;;;14.98;6.93;;;;;;;;;;5011399;28;20038;-74
2022/01/06 11:07:19;;;;;;;30.05;13.70;;;;;;;;;;5011181;28;20523;-75
2022/01/06 11:09:48;;;;;;;16.92;9.20;;;;;;;;;;5024939;28;20511;-75
2022/01/06 11:12:27;;;;;;;15.02;7.80;;;;;;;;;;5031231;28;20717;-77
2022/01/06 11:14:53;;;;;;;11.88;4.55;;;;;;;;;;5026559;28;20045;-76
2022/01/06 11:17:21;;;;;;;15.48;7.40;;;;;;;;;;5030935;28;20033;-77
2022/01/06 11:19:51;;;;;;;17.10;7.72;;;;;;;;;;5030785;28;20147;-74
2022/01/06 11:22:22;;;;;;;15.95;5.70;;;;;;;;;;5011119;28;20044;-77
2022/01/06 11:24:53;;;;;;;11.87;3.27;;;;;;;;;;5028145;28;20025;-74
2022/01/06 11:27:29;;;;;;;12.93;3.55;;;;;;;;;;5026972;28;20267;-77
2022/01/06 11:29:55;;;;;;;14.68;6.43;;;;;;;;;;5030919;28;20037;-75
2022/01/06 11:32:22;;;;;;;13.63;6.30;;;;;;;;;;5030924;28;20037;-77
2022/01/06 11:34:51;;;;;;;19.58;7.70;;;;;;;;;;5030670;28;20044;-77
2022/01/06 11:37:18;;;;;;;12.30;6.40;;;;;;;;;;5015807;28;20156;-77
2022/01/06 11:39:44;;;;;;;13.88;6.75;;;;;;;;;;5030649;28;20052;-77
2022/01/06 11:42:25;;;;;;;18.17;8.65;;;;;;;;;;5030810;28;20049;-77
2022/01/06 11:44:53;;;;;;;13.40;6.53;;;;;;;;;;5031095;28;20040;-77
2022/01/06 11:47:29;;;;;;;10.05;4.30;;;;;;;;;;5031251;28;20033;-77
2022/01/06 11:50:05;;;;;;;11.57;4.70;;;;;;;;;;5029546;28;20050;-77
2022/01/06 11:52:31;;;;;;;9.95;3.22;;;;;;;;;;5031505;28;20364;-77
2022/01/06 11:54:57;;;;;;;6.65;2.33;;;;;;;;;;5030635;28;20034;-77
2022/01/06 11:57:29;;;;;;;13.55;4.47;;;;;;;;;;5031756;28;20061;-77
2022/01/06 11:59:55;;;;;;;9.90;4.05;;;;;;;;;;5030090;28;20045;-77
2022/01/06 12:02:21;;;;;;;14.45;5.13;;;;;;;;;;5030625;28;20041;-77
2022/01/06 12:04:58;;;;;;;12.75;4.00;;;;;;;;;;5022539;28;20033;-77
2022/01/06 12:07:24;;;;;;;7.32;2.60;;;;;;;;;;5019956;28;20029;-77
2022/01/06 12:10:02;;;;;;;6.47;1.95;;;;;;;;;;5034200;28;20140;-77
2022/01/06 12:12:35;;;;;;;7.43;1.77;;;;;;;;;;5033845;28;20048;-74
2022/01/06 12:15:06;;;;;;;7.78;1.80;;;;;;;;;;5024343;28;20037;-74
2022/01/06 12:17:32;;;;;;;5.53;1.73;;;;;;;;;;5037178;28;20029;-77
2022/01/06 12:19:58;;;;;;;7.00;1.77;;;;;;;;;;5030914;28;20049;-77
2022/01/06 12:22:26;;;;;;;4.95;1.35;;;;;;;;;;5027337;28;20021;-77
2022/01/06 12:24:59;;;;;;;4.32;1.10;;;;;;;;;;5034370;28;20683;-77
2022/01/06 12:27:26;;;;;;;5.05;1.42;;;;;;;;;;5041529;28;20025;-76
2022/01/06 12:29:53;;;;;;;5.63;1.13;;;;;;;;;;5037555;28;20037;-77
2022/01/06 12:32:20;;;;;;;6.97;1.70;;;;;;;;;;5051580;28;20376;-77
2022/01/06 12:34:53;;;;;;;6.00;1.52;;;;;;;;;;5031259;28;20030;-76
2022/01/06 12:37:29;;;;;;;4.93;1.38;;;;;;;;;;5014882;28;20030;-77
2022/01/06 12:39:56;;;;;;;5.47;1.55;;;;;;;;;;5028402;28;20082;-77
2022/01/06 12:42:22;;;;;;;5.03;1.40;;;;;;;;;;5033123;28;20129;-77
2022/01/06 12:44:48;;;;;;;4.78;1.20;;;;;;;;;;5033524;28;20473;-77
2022/01/06 12:47:14;;;;;;;4.35;1.13;;;;;;;;;;5034201;28;20820;-77
2022/01/06 12:49:40;;;;;;;5.80;1.05;;;;;;;;;;5032685;28;20041;-77
2022/01/06 12:52:07;;;;;;;3.28;1.05;;;;;;;;;;5033444;28;20037;-77
2022/01/06 12:54:42;;;;;;;3.83;1.05;;;;;;;;;;5027498;28;20465;-77
2022/01/06 12:57:11;;;;;;;8.05;1.02;;;;;;;;;;5033530;28;20075;-77
2022/01/06 12:59:39;;;;;;;4.25;0.80;;;;;;;;;;5032914;28;20473;-77
2022/01/06 13:02:12;;;;;;;5.55;0.90;;;;;;;;;;5047197;23;20064;-77
2022/01/06 13:04:44;;;;;;;3.85;1.08;;;;;;;;;;5032656;28;20113;-77
2022/01/06 13:07:11;;;;;;;16.83;6.63;;;;;;;;;;5043890;28;20040;-77
2022/01/06 13:09:38;;;;;;;11.77;4.15;;;;;;;;;;5022548;28;20030;-77
2022/01/06 13:12:06;;;;;;;7.75;2.10;;;;;;;;;;5021427;28;20022;-77
2022/01/06 13:14:35;;;;;;;10.65;2.00;;;;;;;;;;5026110;28;20022;-77
2022/01/06 13:17:08;;;;;;;5.57;1.67;;;;;;;;;;5032705;28;20037;-77
2022/01/06 13:19:35;;;;;;;5.25;1.52;;;;;;;;;;5032658;28;20071;-76
2022/01/06 13:22:04;;;;;;;5.68;1.27;;;;;;;;;;5032368;28;20712;-77
2022/01/06 13:24:31;;;;;;;8.43;3.03;;;;;;;;;;5026765;28;20033;-77
2022/01/06 13:26:57;;;;;;;7.18;1.75;;;;;;;;;;5031556;28;20083;-77
2022/01/06 13:29:35;;;;;;;6.47;2.13;;;;;;;;;;5034020;28;20026;-76
2022/01/06 13:32:01;;;;;;;9.57;5.20;;;;;;;;;;5037030;28;20372;-77
2022/01/06 13:34:27;;;;;;;6.85;3.47;;;;;;;;;;5032230;28;20044;-77
2022/01/06 13:37:09;;;;;;;5.70;1.92;;;;;;;;;;5040400;28;20040;-77
2022/01/06 13:39:35;;;;;;;;;;;;;;;;;;5031596;28;20033;-77
2022/01/06 13:42:01;;;;;;;5.18;1.40;;;;;;;;;;5032170;28;19936;-77
2022/01/06 13:44:27;;;;;;;6.03;1.27;;;;;;;;;;5031990;28;20060;-77
2022/01/06 13:47:08;;;;;;;4.00;1.10;;;;;;;;;;5032033;28;20362;-77
2022/01/06 13:52:21;;;;;;;4.97;1.13;;;;;;;;;;5027734;28;20083;-77
2022/01/06 13:54:47;;;;;;;6.45;1.42;;;;;;;;;;5030888;28;20035;-77
2022/01/06 13:57:13;;;;;;;5.25;1.30;;;;;;;;;;5032215;28;20045;-77
2022/01/06 13:59:40;;;;;;;3.90;1.33;;;;;;;;;;5030855;28;20033;-77
2022/01/06 14:02:08;;;;;;;7.57;1.48;;;;;;;;;;5030583;28;20470;-77
2022/01/06 14:04:35;;;;;;;9.88;2.67;;;;;;;;;;5034903;28;20068;-77
2022/01/06 14:07:02;;;;;;;13.55;8.02;;;;;;;;;;5034007;28;20425;-77
2022/01/06 14:09:28;;;;;;;12.18;5.97;;;;;;;;;;5034645;28;20075;-77
2022/01/06 14:11:54;;;;;;;12.70;5.00;;;;;;;;;;5031874;28;20045;-77
2022/01/06 14:14:20;;;;;;;10.00;3.92;;;;;;;;;;5026917;28;20105;-77
2022/01/06 14:16:46;;;;;;;11.13;4.50;;;;;;;;;;5030454;28;20048;-77
2022/01/06 14:19:12;;;;;;;15.68;7.15;;;;;;;;;;5033914;28;20033;-77
2022/01/06 14:21:38;;;;;;;23.00;9.38;;;;;;;;;;5031880;28;20437;-77
2022/01/06 14:24:04;;;;;;;13.93;7.38;;;;;;;;;;5030934;28;20057;-77
2022/01/06 14:26:30;;;;;;;19.92;11.10;;;;;;;;;;5035063;28;20041;-76
2022/01/06 14:28:57;;;;;;;18.05;9.30;;;;;;;;;;5035869;28;20026;-77
2022/01/06 14:31:23;;;;;;;12.98;6.57;;;;;;;;;;5041765;28;20033;-76
2022/01/06 14:33:51;;;;;;;13.68;5.28;;;;;;;;;;5044680;28;20898;-77
2022/01/06 14:36:20;;;;;;;8.48;3.65;;;;;;;;;;5030758;28;20067;-77
2022/01/06 14:38:46;;;;;;;12.38;5.28;;;;;;;;;;5031164;28;20042;-77
2022/01/06 14:41:12;;;;;;;12.40;5.72;;;;;;;;;;5036160;28;20044;-76
2022/01/06 14:43:39;;;;;;;11.98;7.35;;;;;;;;;;5031432;28;20025;-76